Terminal Aerodrome Forecast
Issued by NWS

Home | Current Version | Previous Version | Text Only | Print | Product List | Glossary On
Versions: 1 2 3 4 5 6 7 8 9 10 11 12 13 14
576
FTUS44 KLZK 240523
TAFPBF
TAF
KPBF 240523Z 2406/2506 17003KT P6SM SCT080 BKN250
     FM241200 17005KT P6SM FEW030 SCT080 BKN150
     FM241700 16008KT P6SM VCTS SCT030 BKN050CB OVC100=

USA.gov is the U.S. government's official web portal to all federal, state and local government web resources and services.